PWSweather.com
Personal Weather Stations
Station Observations
GRD01
Warsaw, LesznoPL 05-084

WarsawLesznoPL 05-084

Lat: 52.257404, Lon: 20.564847

Elevation: 298

Station Type: WH3080

http://pogoda.kampinos.waw.pl

High Low Average
Temperature 68.5°F20.3°C 49.6°F9.8°C 59.2°F15.1°C
Dew Point 48.7°F9.3°C 38.4°F3.6°C 43.5°F6.4°C
Winds 28.9 mph 46.5 kmh 0.7 mph 1.1 kmh 9.0 mph WNW14.5 kmh WNW
Wind Gusts 33.6 mph54.1 kmh 3.8 mph6.1 kmh 15.0 mph24.1 kmh
Humidity 84% 35% 58%
Pressure 30.09 in1019.0 mb 30.02 in1016.6 mb -
Precipitation 0.00 in0.0 mm - -
Hour Temp Dew Point Humidity Winds Wind Gusts Pressure Precip Precip Rate Daily Precip Total
12:00 AM 52.9°F11.6°C 44.1°F6.7°C 72% 5.4 mph W8.7 kmh W 8.3 mph13.4 kmh 30.08 in1018.6 mb 0.00 in0.0 mm 0.00 in0.0 mm 0.00 in0.0 mm
12:15 AM 53.1°F11.7°C 44.3°F6.8°C 72% 5.4 mph W8.7 kmh W 8.3 mph13.4 kmh 30.09 in1019.0 mb 0.00 in0.0 mm 0.00 in0.0 mm 0.00 in0.0 mm
12:30 AM 53.2°F11.8°C 44.4°F6.9°C 72% 6.0 mph WSW9.7 kmh WSW 11.4 mph18.3 kmh 30.08 in1018.6 mb 0.00 in0.0 mm 0.00 in0.0 mm 0.00 in0.0 mm
12:45 AM 53.4°F11.9°C 44.6°F7.0°C 72% 4.5 mph NW7.2 kmh NW 7.6 mph12.2 kmh 30.08 in1018.6 mb 0.00 in0.0 mm 0.00 in0.0 mm 0.00 in0.0 mm
01:00 AM 53.2°F11.8°C 44.4°F6.9°C 72% 2.2 mph NNW3.5 kmh NNW 6.9 mph11.1 kmh 30.08 in1018.6 mb 0.00 in0.0 mm 0.00 in0.0 mm 0.00 in0.0 mm
01:15 AM 52.9°F11.6°C 44.1°F6.7°C 72% 3.1 mph NW5.0 kmh NW 5.4 mph8.7 kmh 30.08 in1018.6 mb 0.00 in0.0 mm 0.00 in0.0 mm 0.00 in0.0 mm
01:30 AM 52.5°F11.4°C 44.1°F6.7°C 73% 2.2 mph NW3.5 kmh NW 5.4 mph8.7 kmh 30.08 in1018.6 mb 0.00 in0.0 mm 0.00 in0.0 mm 0.00 in0.0 mm
01:45 AM 52.2°F11.2°C 43.8°F6.6°C 73% 2.2 mph W3.5 kmh W 5.4 mph8.7 kmh 30.07 in1018.3 mb 0.00 in0.0 mm 0.00 in0.0 mm 0.00 in0.0 mm
02:00 AM 51.8°F11.0°C 43.8°F6.6°C 74% 3.1 mph NW5.0 kmh NW 5.4 mph8.7 kmh 30.07 in1018.3 mb 0.00 in0.0 mm 0.00 in0.0 mm 0.00 in0.0 mm
02:15 AM 51.6°F10.9°C 44.0°F6.7°C 75% 3.1 mph NW5.0 kmh NW 5.4 mph8.7 kmh 30.07 in1018.3 mb 0.00 in0.0 mm 0.00 in0.0 mm 0.00 in0.0 mm
02:30 AM 51.4°F10.8°C 43.8°F6.6°C 75% 3.1 mph NW5.0 kmh NW 5.4 mph8.7 kmh 30.08 in1018.6 mb 0.00 in0.0 mm 0.00 in0.0 mm 0.00 in0.0 mm
02:45 AM 51.1°F10.6°C 43.8°F6.6°C 76% 0.7 mph WNW1.1 kmh WNW 3.8 mph6.1 kmh 30.07 in1018.3 mb 0.00 in0.0 mm 0.00 in0.0 mm 0.00 in0.0 mm
03:00 AM 50.9°F10.5°C 43.9°F6.6°C 77% 1.6 mph NW2.6 kmh NW 5.4 mph8.7 kmh 30.07 in1018.3 mb 0.00 in0.0 mm 0.00 in0.0 mm 0.00 in0.0 mm
03:15 AM 50.7°F10.4°C 43.8°F6.6°C 77% 2.2 mph NW3.5 kmh NW 4.5 mph7.2 kmh 30.07 in1018.3 mb 0.00 in0.0 mm 0.00 in0.0 mm 0.00 in0.0 mm
03:30 AM 50.7°F10.4°C 44.4°F6.9°C 79% 3.1 mph NW5.0 kmh NW 5.4 mph8.7 kmh 30.07 in1018.3 mb 0.00 in0.0 mm 0.00 in0.0 mm 0.00 in0.0 mm
03:45 AM 50.9°F10.5°C 44.6°F7.0°C 79% 3.1 mph NW5.0 kmh NW 4.5 mph7.2 kmh 30.07 in1018.3 mb 0.00 in0.0 mm 0.00 in0.0 mm 0.00 in0.0 mm
04:00 AM 50.7°F10.4°C 44.4°F6.9°C 79% 2.2 mph NW3.5 kmh NW 4.5 mph7.2 kmh 30.06 in1017.9 mb 0.00 in0.0 mm 0.00 in0.0 mm 0.00 in0.0 mm
04:15 AM 50.5°F10.3°C 44.6°F7.0°C 80% 3.1 mph WNW5.0 kmh WNW 5.4 mph8.7 kmh 30.06 in1017.9 mb 0.00 in0.0 mm 0.00 in0.0 mm 0.00 in0.0 mm
04:30 AM 50.4°F10.2°C 44.4°F6.9°C 80% 3.1 mph NNW5.0 kmh NNW 6.9 mph11.1 kmh 30.06 in1017.9 mb 0.00 in0.0 mm 0.00 in0.0 mm 0.00 in0.0 mm
04:45 AM 50.2°F10.1°C 44.2°F6.8°C 80% 3.1 mph NW5.0 kmh NW 6.0 mph9.7 kmh 30.07 in1018.3 mb 0.00 in0.0 mm 0.00 in0.0 mm 0.00 in0.0 mm
05:00 AM 49.8°F9.9°C 44.2°F6.8°C 81% 4.5 mph NW7.2 kmh NW 5.4 mph8.7 kmh 30.06 in1017.9 mb 0.00 in0.0 mm 0.00 in0.0 mm 0.00 in0.0 mm
05:15 AM 49.8°F9.9°C 44.2°F6.8°C 81% 3.1 mph NW5.0 kmh NW 5.4 mph8.7 kmh 30.07 in1018.3 mb 0.00 in0.0 mm 0.00 in0.0 mm 0.00 in0.0 mm
05:30 AM 50.0°F10.0°C 44.7°F7.1°C 82% 3.1 mph NNW5.0 kmh NNW 5.4 mph8.7 kmh 30.07 in1018.3 mb 0.00 in0.0 mm 0.00 in0.0 mm 0.00 in0.0 mm
05:45 AM 50.5°F10.3°C 45.6°F7.6°C 83% 5.4 mph NW8.7 kmh NW 7.6 mph12.2 kmh 30.07 in1018.3 mb 0.00 in0.0 mm 0.00 in0.0 mm 0.00 in0.0 mm
06:00 AM 51.4°F10.8°C 46.8°F8.2°C 84% 7.6 mph NNW12.2 kmh NNW 8.3 mph13.4 kmh 30.07 in1018.3 mb 0.00 in0.0 mm 0.00 in0.0 mm 0.00 in0.0 mm
06:15 AM 52.5°F11.4°C 47.5°F8.6°C 83% 7.6 mph NW12.2 kmh NW 11.4 mph18.3 kmh 30.07 in1018.3 mb 0.00 in0.0 mm 0.00 in0.0 mm 0.00 in0.0 mm
06:30 AM 53.6°F12.0°C 48.2°F9.0°C 82% 6.0 mph NW9.7 kmh NW 10.7 mph17.2 kmh 30.06 in1017.9 mb 0.00 in0.0 mm 0.00 in0.0 mm 0.00 in0.0 mm
06:45 AM 54.5°F12.5°C 47.1°F8.4°C 76% 8.3 mph NNW13.4 kmh NNW 13.0 mph20.9 kmh 30.07 in1018.3 mb 0.00 in0.0 mm 0.00 in0.0 mm 0.00 in0.0 mm
07:00 AM 55.2°F12.9°C 47.1°F8.4°C 74% 5.4 mph NW8.7 kmh NW 11.4 mph18.3 kmh 30.07 in1018.3 mb 0.00 in0.0 mm 0.00 in0.0 mm 0.00 in0.0 mm
07:15 AM 56.1°F13.4°C 47.2°F8.4°C 72% 10.7 mph NNW17.2 kmh NNW 13.6 mph21.9 kmh 30.07 in1018.3 mb 0.00 in0.0 mm 0.00 in0.0 mm 0.00 in0.0 mm
07:30 AM 57.0°F13.9°C 47.7°F8.7°C 71% 9.2 mph NNW14.8 kmh NNW 15.2 mph24.5 kmh 30.07 in1018.3 mb 0.00 in0.0 mm 0.00 in0.0 mm 0.00 in0.0 mm
07:45 AM 58.1°F14.5°C 48.4°F9.1°C 70% 6.0 mph N9.7 kmh N 14.5 mph23.3 kmh 30.08 in1018.6 mb 0.00 in0.0 mm 0.00 in0.0 mm 0.00 in0.0 mm
08:00 AM 59.2°F15.1°C 48.6°F9.2°C 68% 9.2 mph NW14.8 kmh NW 12.1 mph19.5 kmh 30.08 in1018.6 mb 0.00 in0.0 mm 0.00 in0.0 mm 0.00 in0.0 mm
08:15 AM 60.1°F15.6°C 48.3°F9.1°C 65% 7.6 mph NW12.2 kmh NW 15.9 mph25.6 kmh 30.07 in1018.3 mb 0.00 in0.0 mm 0.00 in0.0 mm 0.00 in0.0 mm
08:30 AM 61.3°F16.3°C 48.2°F9.0°C 62% 6.0 mph NNW9.7 kmh NNW 14.5 mph23.3 kmh 30.07 in1018.3 mb 0.00 in0.0 mm 0.00 in0.0 mm 0.00 in0.0 mm
08:45 AM 62.8°F17.1°C 48.7°F9.3°C 60% 9.8 mph NNW15.8 kmh NNW 15.9 mph25.6 kmh 30.07 in1018.3 mb 0.00 in0.0 mm 0.00 in0.0 mm 0.00 in0.0 mm
09:00 AM 63.1°F17.3°C 47.2°F8.4°C 56% 14.5 mph N23.3 kmh N 22.1 mph35.6 kmh 30.07 in1018.3 mb 0.00 in0.0 mm 0.00 in0.0 mm 0.00 in0.0 mm
09:15 AM 63.3°F17.4°C 47.8°F8.8°C 57% 12.1 mph NNW19.5 kmh NNW 22.1 mph35.6 kmh 30.07 in1018.3 mb 0.00 in0.0 mm 0.00 in0.0 mm 0.00 in0.0 mm
09:30 AM 63.7°F17.6°C 45.7°F7.6°C 52% 15.2 mph NNW24.5 kmh NNW 22.1 mph35.6 kmh 30.07 in1018.3 mb 0.00 in0.0 mm 0.00 in0.0 mm 0.00 in0.0 mm
09:45 AM 63.9°F17.7°C 46.4°F8.0°C 53% 13.6 mph NNW21.9 kmh NNW 23.5 mph37.8 kmh 30.07 in1018.3 mb 0.00 in0.0 mm 0.00 in0.0 mm 0.00 in0.0 mm
10:00 AM 64.6°F18.1°C 46.6°F8.1°C 52% 11.4 mph NNW18.3 kmh NNW 23.5 mph37.8 kmh 30.08 in1018.6 mb 0.00 in0.0 mm 0.00 in0.0 mm 0.00 in0.0 mm
10:15 AM 64.6°F18.1°C 46.6°F8.1°C 52% 18.3 mph NW29.5 kmh NW 21.3 mph34.3 kmh 30.07 in1018.3 mb 0.00 in0.0 mm 0.00 in0.0 mm 0.00 in0.0 mm
10:30 AM 65.3°F18.5°C 46.2°F7.9°C 50% 15.9 mph NNW25.6 kmh NNW 22.8 mph36.7 kmh 30.07 in1018.3 mb 0.00 in0.0 mm 0.00 in0.0 mm 0.00 in0.0 mm
10:45 AM 65.5°F18.6°C 46.3°F7.9°C 50% 13.6 mph N21.9 kmh N 19.0 mph30.6 kmh 30.07 in1018.3 mb 0.00 in0.0 mm 0.00 in0.0 mm 0.00 in0.0 mm
11:00 AM 66.0°F18.9°C 46.8°F8.2°C 50% 13.6 mph NW21.9 kmh NW 22.1 mph35.6 kmh 30.07 in1018.3 mb 0.00 in0.0 mm 0.00 in0.0 mm 0.00 in0.0 mm
11:15 AM 65.8°F18.8°C 46.1°F7.8°C 49% 16.8 mph NW27.0 kmh NW 19.7 mph31.7 kmh 30.07 in1018.3 mb 0.00 in0.0 mm 0.00 in0.0 mm 0.00 in0.0 mm
11:30 AM 66.4°F19.1°C 46.6°F8.1°C 49% 15.2 mph NW24.5 kmh NW 22.1 mph35.6 kmh 30.07 in1018.3 mb 0.00 in0.0 mm 0.00 in0.0 mm 0.00 in0.0 mm
11:45 AM 66.4°F19.1°C 44.4°F6.9°C 45% 21.3 mph N34.3 kmh N 28.2 mph45.4 kmh 30.06 in1017.9 mb 0.00 in0.0 mm 0.00 in0.0 mm 0.00 in0.0 mm
12:00 PM 66.9°F19.4°C 46.0°F7.8°C 47% 13.6 mph NNW21.9 kmh NNW 20.6 mph33.2 kmh 30.07 in1018.3 mb 0.00 in0.0 mm 0.00 in0.0 mm 0.00 in0.0 mm
12:15 PM 67.3°F19.6°C 45.2°F7.3°C 45% 15.9 mph NNW25.6 kmh NNW 27.3 mph43.9 kmh 30.06 in1017.9 mb 0.00 in0.0 mm 0.00 in0.0 mm 0.00 in0.0 mm
12:30 PM 67.6°F19.8°C 44.9°F7.2°C 44% 19.0 mph NNW30.6 kmh NNW 27.3 mph43.9 kmh 30.06 in1017.9 mb 0.00 in0.0 mm 0.00 in0.0 mm 0.00 in0.0 mm
12:45 PM 68.2°F20.1°C 44.2°F6.8°C 42% 15.2 mph NNW24.5 kmh NNW 22.1 mph35.6 kmh 30.05 in1017.6 mb 0.00 in0.0 mm 0.00 in0.0 mm 0.00 in0.0 mm
01:00 PM 68.0°F20.0°C 44.0°F6.7°C 42% 13.6 mph NNW21.9 kmh NNW 24.4 mph39.3 kmh 30.05 in1017.6 mb 0.00 in0.0 mm 0.00 in0.0 mm 0.00 in0.0 mm
01:15 PM 68.4°F20.2°C 44.4°F6.9°C 42% 16.8 mph NW27.0 kmh NW 24.4 mph39.3 kmh 30.05 in1017.6 mb 0.00 in0.0 mm 0.00 in0.0 mm 0.00 in0.0 mm
01:30 PM 68.2°F20.1°C 44.2°F6.8°C 42% 13.6 mph N21.9 kmh N 27.3 mph43.9 kmh 30.04 in1017.3 mb 0.00 in0.0 mm 0.00 in0.0 mm 0.00 in0.0 mm
01:45 PM 68.4°F20.2°C 43.7°F6.5°C 41% 21.3 mph N34.3 kmh N 25.1 mph40.4 kmh 30.04 in1017.3 mb 0.00 in0.0 mm 0.00 in0.0 mm 0.00 in0.0 mm
02:00 PM 68.5°F20.3°C 43.9°F6.6°C 41% 19.7 mph NW31.7 kmh NW 22.8 mph36.7 kmh 30.04 in1017.3 mb 0.00 in0.0 mm 0.00 in0.0 mm 0.00 in0.0 mm
02:15 PM 68.4°F20.2°C 43.1°F6.2°C 40% 28.9 mph N46.5 kmh N 33.6 mph54.1 kmh 30.04 in1017.3 mb 0.00 in0.0 mm 0.00 in0.0 mm 0.00 in0.0 mm
02:30 PM 68.4°F20.2°C 42.4°F5.8°C 39% 14.5 mph N23.3 kmh N 28.2 mph45.4 kmh 30.04 in1017.3 mb 0.00 in0.0 mm 0.00 in0.0 mm 0.00 in0.0 mm
02:45 PM 68.4°F20.2°C 41.1°F5.1°C 37% 17.4 mph N28.0 kmh N 25.9 mph41.7 kmh 30.03 in1016.9 mb 0.00 in0.0 mm 0.00 in0.0 mm 0.00 in0.0 mm
03:00 PM 68.4°F20.2°C 40.4°F4.7°C 36% 15.2 mph N24.5 kmh N 30.4 mph48.9 kmh 30.03 in1016.9 mb 0.00 in0.0 mm 0.00 in0.0 mm 0.00 in0.0 mm
03:15 PM 68.4°F20.2°C 39.6°F4.2°C 35% 17.4 mph NNW28.0 kmh NNW 31.1 mph50.1 kmh 30.03 in1016.9 mb 0.00 in0.0 mm 0.00 in0.0 mm 0.00 in0.0 mm
03:30 PM 68.2°F20.1°C 41.6°F5.3°C 38% 19.0 mph NNW30.6 kmh NNW 26.6 mph42.8 kmh 30.03 in1016.9 mb 0.00 in0.0 mm 0.00 in0.0 mm 0.00 in0.0 mm
03:45 PM 67.8°F19.9°C 41.9°F5.5°C 39% 17.4 mph NNE28.0 kmh NNE 26.6 mph42.8 kmh 30.03 in1016.9 mb 0.00 in0.0 mm 0.00 in0.0 mm 0.00 in0.0 mm
04:00 PM 67.8°F19.9°C 42.6°F5.9°C 40% 19.0 mph NNW30.6 kmh NNW 26.6 mph42.8 kmh 30.03 in1016.9 mb 0.00 in0.0 mm 0.00 in0.0 mm 0.00 in0.0 mm
04:15 PM 67.6°F19.8°C 42.4°F5.8°C 40% 19.0 mph N30.6 kmh N 22.1 mph35.6 kmh 30.03 in1016.9 mb 0.00 in0.0 mm 0.00 in0.0 mm 0.00 in0.0 mm
04:30 PM 67.3°F19.6°C 42.1°F5.6°C 40% 14.5 mph N23.3 kmh N 24.4 mph39.3 kmh 30.02 in1016.6 mb 0.00 in0.0 mm 0.00 in0.0 mm 0.00 in0.0 mm
04:45 PM 67.1°F19.5°C 42.0°F5.6°C 40% 17.4 mph NNW28.0 kmh NNW 22.8 mph36.7 kmh 30.03 in1016.9 mb 0.00 in0.0 mm 0.00 in0.0 mm 0.00 in0.0 mm
05:00 PM 66.6°F19.2°C 41.5°F5.3°C 40% 9.8 mph NNW15.8 kmh NNW 22.8 mph36.7 kmh 30.03 in1016.9 mb 0.00 in0.0 mm 0.00 in0.0 mm 0.00 in0.0 mm
05:15 PM 66.2°F19.0°C 41.8°F5.4°C 41% 9.8 mph NNW15.8 kmh NNW 18.3 mph29.5 kmh 30.03 in1016.9 mb 0.00 in0.0 mm 0.00 in0.0 mm 0.00 in0.0 mm
05:30 PM 65.7°F18.7°C 41.3°F5.2°C 41% 15.2 mph N24.5 kmh N 22.8 mph36.7 kmh 30.02 in1016.6 mb 0.00 in0.0 mm 0.00 in0.0 mm 0.00 in0.0 mm
05:45 PM 65.1°F18.4°C 41.4°F5.2°C 42% 13.6 mph N21.9 kmh N 21.3 mph34.3 kmh 30.03 in1016.9 mb 0.00 in0.0 mm 0.00 in0.0 mm 0.00 in0.0 mm
06:00 PM 64.6°F18.1°C 41.0°F5.0°C 42% 9.2 mph NNW14.8 kmh NNW 19.7 mph31.7 kmh 30.03 in1016.9 mb 0.00 in0.0 mm 0.00 in0.0 mm 0.00 in0.0 mm
06:15 PM 63.9°F17.7°C 40.9°F4.9°C 43% 10.7 mph N17.2 kmh N 14.5 mph23.3 kmh 30.04 in1017.3 mb 0.00 in0.0 mm 0.00 in0.0 mm 0.00 in0.0 mm
06:30 PM 63.3°F17.4°C 43.3°F6.3°C 48% 9.2 mph N14.8 kmh N 15.2 mph24.5 kmh 30.03 in1016.9 mb 0.00 in0.0 mm 0.00 in0.0 mm 0.00 in0.0 mm
06:45 PM 62.4°F16.9°C 43.5°F6.4°C 50% 6.9 mph N11.1 kmh N 13.0 mph20.9 kmh 30.03 in1016.9 mb 0.00 in0.0 mm 0.00 in0.0 mm 0.00 in0.0 mm
07:00 PM 61.7°F16.5°C 42.9°F6.1°C 50% 5.4 mph N8.7 kmh N 10.7 mph17.2 kmh 30.04 in1017.3 mb 0.00 in0.0 mm 0.00 in0.0 mm 0.00 in0.0 mm
07:15 PM 60.4°F15.8°C 42.2°F5.7°C 51% 6.9 mph NNE11.1 kmh NNE 9.8 mph15.8 kmh 30.05 in1017.6 mb 0.00 in0.0 mm 0.00 in0.0 mm 0.00 in0.0 mm
07:30 PM 59.7°F15.4°C 41.0°F5.0°C 50% 7.6 mph N12.2 kmh N 10.7 mph17.2 kmh 30.05 in1017.6 mb 0.00 in0.0 mm 0.00 in0.0 mm 0.00 in0.0 mm
07:45 PM 59.2°F15.1°C 40.5°F4.7°C 50% 6.0 mph N9.7 kmh N 10.7 mph17.2 kmh 30.06 in1017.9 mb 0.00 in0.0 mm 0.00 in0.0 mm 0.00 in0.0 mm
08:00 PM 58.5°F14.7°C 39.9°F4.4°C 50% 8.3 mph N13.4 kmh N 9.8 mph15.8 kmh 30.06 in1017.9 mb 0.00 in0.0 mm 0.00 in0.0 mm 0.00 in0.0 mm
08:15 PM 57.7°F14.3°C 39.2°F4.0°C 50% 6.0 mph N9.7 kmh N 9.8 mph15.8 kmh 30.06 in1017.9 mb 0.00 in0.0 mm 0.00 in0.0 mm 0.00 in0.0 mm
08:30 PM 57.4°F14.1°C 38.9°F3.8°C 50% 8.3 mph NNW13.4 kmh NNW 11.4 mph18.3 kmh 30.06 in1017.9 mb 0.00 in0.0 mm 0.00 in0.0 mm 0.00 in0.0 mm
08:45 PM 57.0°F13.9°C 39.1°F3.9°C 51% 5.4 mph N8.7 kmh N 11.4 mph18.3 kmh 30.06 in1017.9 mb 0.00 in0.0 mm 0.00 in0.0 mm 0.00 in0.0 mm
09:00 PM 56.5°F13.6°C 38.6°F3.7°C 51% 7.6 mph NNW12.2 kmh NNW 11.4 mph18.3 kmh 30.07 in1018.3 mb 0.00 in0.0 mm 0.00 in0.0 mm 0.00 in0.0 mm
09:15 PM 56.3°F13.5°C 38.9°F3.8°C 52% 9.8 mph N15.8 kmh N 13.0 mph20.9 kmh 30.07 in1018.3 mb 0.00 in0.0 mm 0.00 in0.0 mm 0.00 in0.0 mm
09:30 PM 55.9°F13.3°C 38.6°F3.7°C 52% 7.6 mph N12.2 kmh N 9.2 mph14.8 kmh 30.07 in1018.3 mb 0.00 in0.0 mm 0.00 in0.0 mm 0.00 in0.0 mm
09:45 PM 55.4°F13.0°C 38.5°F3.6°C 53% 7.6 mph N12.2 kmh N 10.7 mph17.2 kmh 30.07 in1018.3 mb 0.00 in0.0 mm 0.00 in0.0 mm 0.00 in0.0 mm
10:00 PM 54.7°F12.6°C 38.4°F3.6°C 54% 5.4 mph N8.7 kmh N 8.3 mph13.4 kmh 30.07 in1018.3 mb 0.00 in0.0 mm 0.00 in0.0 mm 0.00 in0.0 mm
10:15 PM 53.8°F12.1°C 40.2°F4.6°C 60% 4.5 mph N7.2 kmh N 7.6 mph12.2 kmh 30.07 in1018.3 mb 0.00 in0.0 mm 0.00 in0.0 mm 0.00 in0.0 mm
10:30 PM 52.7°F11.5°C 39.6°F4.2°C 61% 4.5 mph N7.2 kmh N 6.0 mph9.7 kmh 30.07 in1018.3 mb 0.00 in0.0 mm 0.00 in0.0 mm 0.00 in0.0 mm
10:45 PM 52.0°F11.1°C 39.4°F4.1°C 62% 4.5 mph N7.2 kmh N 7.6 mph12.2 kmh 30.07 in1018.3 mb 0.00 in0.0 mm 0.00 in0.0 mm 0.00 in0.0 mm
11:00 PM 51.1°F10.6°C 38.9°F3.8°C 63% 4.5 mph N7.2 kmh N 6.0 mph9.7 kmh 30.07 in1018.3 mb 0.00 in0.0 mm 0.00 in0.0 mm 0.00 in0.0 mm
11:15 PM 50.5°F10.3°C 38.8°F3.8°C 64% 3.8 mph N6.1 kmh N 6.0 mph9.7 kmh 30.07 in1018.3 mb 0.00 in0.0 mm 0.00 in0.0 mm 0.00 in0.0 mm
11:30 PM 50.2°F10.1°C 39.3°F4.1°C 66% 3.1 mph N5.0 kmh N 4.5 mph7.2 kmh 30.07 in1018.3 mb 0.00 in0.0 mm 0.00 in0.0 mm 0.00 in0.0 mm
11:45 PM 49.6°F9.8°C 39.1°F3.9°C 67% 3.8 mph N6.1 kmh N 4.5 mph7.2 kmh 30.07 in1018.3 mb 0.00 in0.0 mm 0.00 in0.0 mm 0.00 in0.0 mm